createdAt,value
2023-02-04T00:01:38.074Z,8.9
2023-02-04T00:07:27.625Z,8.9
2023-02-04T00:13:17.809Z,8.9
2023-02-04T00:19:08.485Z,8.9
2023-02-04T00:24:58.733Z,8.8
2023-02-04T00:30:48.539Z,8.7
2023-02-04T00:36:38.948Z,8.8
2023-02-04T00:42:30.827Z,8.7
2023-02-04T00:48:22.431Z,8.7
2023-02-04T00:54:14.233Z,8.8
2023-02-04T01:00:04.138Z,8.7
2023-02-04T01:05:54.176Z,8.7
2023-02-04T01:11:46.197Z,8.7
2023-02-04T01:17:36.989Z,8.6
2023-02-04T01:23:26.538Z,8.7
2023-02-04T01:29:17.005Z,8.6
2023-02-04T01:35:07.524Z,8.6
2023-02-04T01:40:57.557Z,8.6
2023-02-04T01:46:48.739Z,8.5
2023-02-04T01:52:38.978Z,8.5
2023-02-04T01:58:27.233Z,8.5
2023-02-04T02:04:17.000Z,8.5
2023-02-04T02:10:05.186Z,8.5
2023-02-04T02:15:54.440Z,8.4
2023-02-04T02:21:43.335Z,8.4
2023-02-04T02:27:34.505Z,8.4
2023-02-04T02:33:24.299Z,8.4
2023-02-04T02:39:13.756Z,8.3
2023-02-04T02:45:03.195Z,8.3
2023-02-04T02:50:52.373Z,8.3
2023-02-04T02:56:41.479Z,8.3
2023-02-04T03:02:30.682Z,8.3
2023-02-04T03:08:19.258Z,8.1
2023-02-04T03:14:07.605Z,8.1
2023-02-04T03:19:55.616Z,8.1
2023-02-04T03:25:44.384Z,8.1
2023-02-04T03:31:32.531Z,8
2023-02-04T03:37:24.316Z,8
2023-02-04T03:43:14.536Z,8
2023-02-04T03:49:04.152Z,8
2023-02-04T03:54:53.984Z,8
2023-02-04T04:00:45.380Z,7.9
2023-02-04T04:06:36.040Z,7.9
2023-02-04T04:12:26.166Z,7.8
2023-02-04T04:18:15.339Z,7.9
2023-02-04T04:24:05.206Z,7.8
2023-02-04T04:29:55.069Z,7.8
2023-02-04T04:35:45.380Z,7.8
2023-02-04T04:41:35.668Z,7.7
2023-02-04T04:47:26.880Z,7.8
2023-02-04T04:53:17.243Z,7.9
2023-02-04T04:59:10.018Z,7.8
2023-02-04T05:04:59.771Z,7.8
2023-02-04T05:10:50.655Z,7.7
2023-02-04T05:16:40.886Z,7.7
2023-02-04T05:22:31.142Z,7.7
2023-02-04T05:28:20.410Z,7.7
2023-02-04T05:34:10.407Z,7.7
2023-02-04T05:40:00.663Z,7.6
2023-02-04T05:45:51.814Z,7.7
2023-02-04T05:51:42.609Z,7.8
2023-02-04T05:57:33.689Z,7.7
2023-02-04T06:03:24.347Z,7.6
2023-02-04T06:09:14.410Z,7.6
2023-02-04T06:15:05.742Z,7.6
2023-02-04T06:20:57.829Z,7.6
2023-02-04T06:26:47.124Z,7.5
2023-02-04T06:32:37.174Z,7.6
2023-02-04T06:38:31.386Z,7.6
2023-02-04T06:44:23.301Z,7.6
2023-02-04T06:50:16.771Z,7.6
2023-02-04T06:56:08.937Z,7.6
2023-02-04T07:01:58.801Z,7.7
2023-02-04T07:07:48.982Z,7.5
2023-02-04T07:13:39.369Z,7.6
2023-02-04T07:19:32.574Z,7.6
2023-02-04T07:25:22.602Z,7.5
2023-02-04T07:31:12.662Z,7.6
2023-02-04T07:37:04.219Z,7.6
2023-02-04T07:42:53.603Z,7.5
2023-02-04T07:48:44.658Z,7.6
2023-02-04T07:54:35.427Z,7.6
2023-02-04T08:00:24.301Z,7.6
2023-02-04T08:06:14.920Z,7.7
2023-02-04T08:12:05.949Z,7.9
2023-02-04T08:17:57.094Z,7.9
2023-02-04T08:23:47.475Z,7.9
2023-02-04T08:29:38.551Z,7.9
2023-02-04T08:35:29.472Z,8
2023-02-04T08:41:20.189Z,7.9
2023-02-04T08:47:10.420Z,7.8
2023-02-04T08:53:00.807Z,8
2023-02-04T08:58:50.456Z,8
2023-02-04T09:04:41.242Z,8
2023-02-04T09:10:30.602Z,8
2023-02-04T09:16:21.952Z,8.2
2023-02-04T09:22:13.450Z,8.2
2023-02-04T09:28:04.424Z,8.3
2023-02-04T09:33:57.343Z,8.1
2023-02-04T09:39:48.501Z,8.2
2023-02-04T09:45:39.284Z,8.2
2023-02-04T09:51:31.981Z,8.1
2023-02-04T09:57:23.280Z,8.2
2023-02-04T10:03:13.883Z,8.3
2023-02-04T10:09:05.274Z,8.3
2023-02-04T10:14:54.612Z,8.4
2023-02-04T10:20:48.114Z,8.4
2023-02-04T10:26:38.768Z,8.6
2023-02-04T10:32:30.701Z,8.6
2023-02-04T10:38:20.598Z,8.7
2023-02-04T10:44:11.162Z,8.7
2023-02-04T10:50:01.200Z,8.6
2023-02-04T10:55:52.723Z,8.7
2023-02-04T11:01:44.140Z,8.6
2023-02-04T11:07:33.568Z,8.7
2023-02-04T11:13:23.520Z,8.9
2023-02-04T11:19:21.058Z,9
2023-02-04T11:25:13.570Z,9.1
2023-02-04T11:31:04.946Z,8.8
2023-02-04T11:36:54.590Z,8.8
2023-02-04T11:42:44.037Z,9
2023-02-04T11:48:33.981Z,9
2023-02-04T11:54:24.465Z,8.9
2023-02-04T12:00:20.223Z,9
2023-02-04T12:06:09.084Z,8.8
2023-02-04T12:11:58.940Z,9.1
2023-02-04T12:17:48.447Z,9.1
2023-02-04T12:23:37.985Z,9.1
2023-02-04T12:29:26.989Z,9.1
2023-02-04T12:35:16.667Z,9
2023-02-04T12:41:06.680Z,9.4
2023-02-04T12:46:58.894Z,9.2
2023-02-04T12:52:48.636Z,9.1
2023-02-04T12:58:39.163Z,9.2
2023-02-04T13:04:29.982Z,9.3
2023-02-04T13:10:21.642Z,9.2
2023-02-04T13:16:12.102Z,9.4
2023-02-04T13:22:02.547Z,9.3
2023-02-04T13:27:51.715Z,9.2
2023-02-04T13:33:42.224Z,9.3
2023-02-04T13:39:32.774Z,9.6
2023-02-04T13:45:25.441Z,9.3
2023-02-04T13:51:16.797Z,9.3
2023-02-04T13:57:06.240Z,9.4
2023-02-04T14:02:56.715Z,9.3
2023-02-04T14:08:48.489Z,9.5
2023-02-04T14:14:39.544Z,9.6
2023-02-04T14:20:31.293Z,9.6
2023-02-04T14:26:23.073Z,9.5
2023-02-04T14:32:15.478Z,9.6
2023-02-04T14:38:08.732Z,9.6
2023-02-04T14:43:58.505Z,9.8
2023-02-04T14:49:51.354Z,9.6
2023-02-04T14:55:42.435Z,9.5
2023-02-04T15:01:32.356Z,9.6
2023-02-04T15:07:25.160Z,9.7
2023-02-04T15:13:14.643Z,9.6
2023-02-04T15:19:04.146Z,9.5
2023-02-04T15:24:54.960Z,9.5
2023-02-04T15:30:46.163Z,9.5
2023-02-04T15:36:38.070Z,9.5
2023-02-04T15:42:27.767Z,9.6
2023-02-04T15:48:17.175Z,9.6
2023-02-04T15:54:07.019Z,9.5
2023-02-04T15:59:58.307Z,9.5
2023-02-04T16:05:48.412Z,9.5
2023-02-04T16:11:38.336Z,9.4
2023-02-04T16:17:28.943Z,9.3
2023-02-04T16:23:19.626Z,9.1
2023-02-04T16:29:10.715Z,9.1
2023-02-04T16:35:00.894Z,9.1
2023-02-04T16:40:52.568Z,8.9
2023-02-04T16:46:45.495Z,8.8
2023-02-04T16:52:36.595Z,8.7
2023-02-04T16:58:26.662Z,8.6
2023-02-04T17:04:19.464Z,8.8
2023-02-04T17:10:10.141Z,8.7
2023-02-04T17:16:02.751Z,8.6
2023-02-04T17:21:53.632Z,8.8
2023-02-04T17:27:46.600Z,8.7
2023-02-04T17:33:38.276Z,8.7
2023-02-04T17:39:29.319Z,8.7
2023-02-04T17:45:25.874Z,8.7
2023-02-04T17:51:20.375Z,8.6
2023-02-04T17:57:11.248Z,8.5
2023-02-04T18:03:01.508Z,8.5
2023-02-04T18:08:53.405Z,8.6
2023-02-04T18:14:42.968Z,8.3
2023-02-04T18:20:33.987Z,8.5
2023-02-04T18:26:23.721Z,8.6
2023-02-04T18:32:14.349Z,8.5
2023-02-04T18:38:04.863Z,8.5
2023-02-04T18:43:54.913Z,8.5
2023-02-04T18:49:47.008Z,8.5
2023-02-04T18:55:37.275Z,8.2
2023-02-04T19:01:28.934Z,8.3
2023-02-04T19:07:20.548Z,8.3
2023-02-04T19:13:11.093Z,8.4
2023-02-04T19:19:02.405Z,8.4
2023-02-04T19:24:51.969Z,8.4
2023-02-04T19:30:42.073Z,8.3
2023-02-04T19:36:32.636Z,8.4
2023-02-04T19:42:25.284Z,8.4
2023-02-04T19:48:18.313Z,8.3
2023-02-04T19:54:08.891Z,8.4
2023-02-04T19:59:59.623Z,8.2
2023-02-04T20:05:48.650Z,8.1
2023-02-04T20:11:40.359Z,8.2
2023-02-04T20:17:30.584Z,8.2
2023-02-04T20:23:19.452Z,8.2
2023-02-04T20:29:08.459Z,8.2
2023-02-04T20:34:57.752Z,8.2
2023-02-04T20:40:47.135Z,8.2
2023-02-04T20:46:39.287Z,8.4
2023-02-04T20:52:30.120Z,8.3
2023-02-04T20:58:20.727Z,8.1
2023-02-04T21:04:10.450Z,8
2023-02-04T21:10:01.668Z,8.2
2023-02-04T21:15:52.487Z,8.1
2023-02-04T21:21:43.493Z,8.1
2023-02-04T21:27:34.195Z,8.1
2023-02-04T21:33:24.224Z,8.1
2023-02-04T21:39:14.467Z,8.1
2023-02-04T21:45:04.843Z,8
2023-02-04T21:50:55.245Z,8.1
2023-02-04T21:56:51.741Z,8.1
2023-02-04T22:02:42.845Z,7.7
2023-02-04T22:08:34.717Z,7.9
2023-02-04T22:14:25.281Z,8.1
2023-02-04T22:20:14.919Z,7.9
2023-02-04T22:26:06.508Z,7.9
2023-02-04T22:31:56.214Z,7.9
2023-02-04T22:37:45.559Z,7.7
2023-02-04T22:43:38.830Z,7.9
2023-02-04T22:49:30.845Z,7.9
2023-02-04T22:55:20.758Z,8
2023-02-04T23:01:10.333Z,8
2023-02-04T23:07:00.340Z,7.9
2023-02-04T23:12:50.503Z,7.8
2023-02-04T23:18:41.805Z,7.9
2023-02-04T23:24:33.491Z,7.9
2023-02-04T23:30:26.675Z,7.9
2023-02-04T23:36:17.002Z,7.8
2023-02-04T23:42:07.863Z,7.8
2023-02-04T23:47:58.522Z,7.9
2023-02-04T23:53:48.664Z,7.9
2023-02-04T23:59:38.676Z,7.9
